Time;durP1;ratioP1;P1;durP2;ratioP2;P2;SDS_P1;SDS_P2;PMS_P1;PMS_P2;Temp;Humidity;BMP_temperature;BMP_pressure;BME280_temperature;BME280_humidity;BME280_pressure;Samples;Min_cycle;Max_cycle;Signal;HPM_P1;HPM_P2
2021/12/19 00:00:12;;;;;;;2.90;1.77;;;;;;;-2.67;85.93;97453.28;4828363;29;20117;-68
2021/12/19 00:10:48;;;;;;;3.58;1.63;;;;;;;-2.61;87.11;97419.06;4827619;29;20116;-67
2021/12/19 00:13:13;;;;;;;2.25;1.35;;;;;;;-2.44;85.98;97409.44;4828604;29;20057;-73
2021/12/19 00:15:40;;;;;;;2.45;1.88;;;;;;;-2.64;85.58;97392.28;4812719;29;20132;-66
2021/12/19 00:18:04;;;;;;;3.40;1.88;;;;;;;-2.72;86.64;97389.28;4844920;29;20128;-68
2021/12/19 00:20:29;;;;;;;1.67;1.30;;;;;;;-2.67;86.49;97379.41;4827594;29;20527;-67
2021/12/19 00:22:54;;;;;;;2.00;1.40;;;;;;;-2.55;86.03;97368.31;4813226;29;20132;-74
2021/12/19 00:25:19;;;;;;;2.90;1.73;;;;;;;-2.53;85.38;97352.56;4845793;29;20051;-72
2021/12/19 00:27:43;;;;;;;3.35;1.90;;;;;;;-2.63;85.81;97353.09;4842859;29;20498;-74
2021/12/19 00:30:09;;;;;;;1.75;1.65;;;;;;;-2.72;85.53;97352.75;4844064;29;20137;-73
2021/12/19 00:32:33;;;;;;;3.88;1.13;;;;;;;-2.58;85.34;97343.22;4845064;29;20063;-72
2021/12/19 00:34:58;;;;;;;2.30;1.10;;;;;;;-2.63;85.39;97334.84;4843705;29;20048;-72
2021/12/19 00:37:23;;;;;;;1.45;0.68;;;;;;;-2.58;85.43;97324.97;4844121;29;20049;-72
2021/12/19 00:39:49;;;;;;;1.42;1.30;;;;;;;-2.60;84.76;97321.63;4827336;29;20053;-74
2021/12/19 00:42:26;;;;;;;1.70;1.05;;;;;;;-2.54;85.11;97309.16;4844054;29;20480;-72
2021/12/19 00:44:52;;;;;;;1.33;0.93;;;;;;;-2.49;84.91;97294.09;4827296;29;20127;-72
2021/12/19 00:47:17;;;;;;;1.48;1.15;;;;;;;-2.61;85.33;97280.81;4826874;29;20052;-73
2021/12/19 00:49:41;;;;;;;3.83;2.05;;;;;;;-2.51;84.69;97275.09;4843738;29;20048;-74
2021/12/19 00:52:06;;;;;;;1.85;1.08;;;;;;;-2.32;84.14;97273.09;4827769;29;20055;-74
2021/12/19 00:54:31;;;;;;;1.17;0.75;;;;;;;-2.46;83.75;97260.84;4811231;29;20041;-72
2021/12/19 00:56:56;;;;;;;2.63;1.45;;;;;;;-2.52;84.51;97257.75;4811238;29;20811;-67
2021/12/19 00:59:21;;;;;;;4.82;2.10;;;;;;;-2.49;84.00;97240.16;4844168;29;20049;-74
2021/12/19 01:01:46;;;;;;;3.75;1.88;;;;;;;-2.51;84.82;97234.19;4844243;29;20132;-75
2021/12/19 01:04:16;;;;;;;2.88;1.92;;;;;;;-2.63;84.52;97222.69;4844009;29;20124;-75
2021/12/19 01:06:42;;;;;;;1.30;0.85;;;;;;;-2.37;84.35;97210.72;4796348;29;20068;-72
2021/12/19 01:09:08;;;;;;;1.63;1.50;;;;;;;-2.47;84.20;97198.31;4843393;29;20407;-72
2021/12/19 01:11:34;;;;;;;1.75;1.58;;;;;;;-2.50;84.38;97194.13;4843283;29;20052;-71
2021/12/19 01:13:59;;;;;;;4.75;1.85;;;;;;;-2.72;84.87;97189.34;4843303;29;20041;-71
2021/12/19 01:16:23;;;;;;;1.35;0.90;;;;;;;-2.46;85.16;97181.72;4826894;29;20160;-71
2021/12/19 01:18:49;;;;;;;2.45;1.60;;;;;;;-2.54;84.88;97171.75;4826342;29;20098;-74
2021/12/19 01:21:14;;;;;;;1.83;1.23;;;;;;;-2.46;84.48;97172.16;4827175;29;20085;-75
2021/12/19 01:23:39;;;;;;;3.55;2.78;;;;;;;-2.51;85.32;97158.56;4828040;29;20049;-75
2021/12/19 01:26:04;;;;;;;3.60;2.90;;;;;;;-2.57;85.03;97136.25;4842915;29;20057;-74
2021/12/19 01:28:29;;;;;;;4.03;1.90;;;;;;;-2.58;85.20;97137.19;4826344;29;20563;-68
2021/12/19 01:30:54;;;;;;;2.45;2.10;;;;;;;-2.54;85.67;97126.59;4842834;29;20108;-69
2021/12/19 01:33:18;;;;;;;2.15;1.73;;;;;;;-2.51;85.15;97123.81;4825984;29;20049;-69
2021/12/19 01:35:43;;;;;;;1.42;1.02;;;;;;;-2.48;85.51;97127.03;4841891;29;20064;-66
2021/12/19 01:38:08;;;;;;;1.45;1.30;;;;;;;-2.47;85.61;97109.63;4826222;29;20044;-71
2021/12/19 01:40:33;;;;;;;2.47;1.67;;;;;;;-2.53;86.46;97103.03;4843056;29;21041;-70
2021/12/19 01:42:58;;;;;;;1.92;0.95;;;;;;;-2.46;86.56;97088.66;4842903;29;20052;-70
2021/12/19 01:45:33;;;;;;;1.30;1.00;;;;;;;-2.42;86.83;97086.72;4810696;29;20516;-71
2021/12/19 01:48:02;;;;;;;1.23;1.02;;;;;;;-2.43;87.02;97072.00;4842748;29;20047;-71
2021/12/19 01:50:29;;;;;;;2.70;2.00;;;;;;;-2.55;86.67;97057.94;4825896;29;20053;-70
2021/12/19 01:52:54;;;;;;;2.85;1.63;;;;;;;-2.53;87.33;97060.44;4842791;29;20156;-71
2021/12/19 01:55:19;;;;;;;1.70;1.48;;;;;;;-2.50;86.97;97052.44;4826084;29;20076;-71
2021/12/19 01:57:44;;;;;;;2.75;1.58;;;;;;;-2.44;86.42;97044.22;4825904;29;20044;-72
2021/12/19 02:00:19;;;;;;;2.40;1.25;;;;;;;-2.43;86.21;97030.25;4841574;29;20060;-71
2021/12/19 02:02:44;;;;;;;1.48;1.08;;;;;;;-2.41;86.41;97023.19;4825657;29;20051;-70
2021/12/19 02:05:09;;;;;;;2.88;1.52;;;;;;;-2.44;85.84;97015.53;4842738;29;20056;-71
2021/12/19 02:07:34;;;;;;;2.70;1.35;;;;;;;-2.34;86.10;97008.81;4842351;29;20048;-70
2021/12/19 02:09:58;;;;;;;1.50;1.40;;;;;;;-2.39;85.53;96996.06;4842460;29;20055;-70
2021/12/19 02:12:23;;;;;;;2.92;2.00;;;;;;;-2.44;86.15;96992.06;4825912;29;20045;-69
2021/12/19 02:14:48;;;;;;;6.10;1.70;;;;;;;-2.50;85.86;96977.66;4842278;29;20052;-71
2021/12/19 02:17:13;;;;;;;4.68;2.10;;;;;;;-2.49;86.25;96965.44;4842389;29;20045;-71
2021/12/19 02:19:40;;;;;;;3.67;2.25;;;;;;;-2.45;86.22;96964.28;4825966;29;20059;-68
2021/12/19 02:22:05;;;;;;;3.38;2.05;;;;;;;-2.50;86.21;96951.56;4841986;29;20060;-69
2021/12/19 02:24:29;;;;;;;2.75;1.63;;;;;;;-2.29;85.97;96941.53;4842232;29;20057;-69
2021/12/19 02:26:55;;;;;;;2.20;1.55;;;;;;;-2.34;86.13;96935.78;4842033;29;20056;-69
2021/12/19 02:29:20;;;;;;;1.67;1.30;;;;;;;-2.46;86.17;96932.16;4842206;29;20059;-71
2021/12/19 02:31:45;;;;;;;1.13;0.98;;;;;;;-2.32;86.23;96924.31;4842298;29;20123;-68
2021/12/19 02:50:09;;;;;;;1.88;1.52;;;;;;;-2.25;86.23;96864.72;4842500;29;20049;-70
2021/12/19 02:52:35;;;;;;;9.07;2.15;;;;;;;-2.35;86.46;96863.66;4848927;29;20139;-72
2021/12/19 02:55:00;;;;;;;2.90;1.65;;;;;;;-2.33;86.02;96853.97;4843479;29;20051;-72
2021/12/19 02:57:25;;;;;;;3.63;1.83;;;;;;;-2.36;86.49;96841.94;4860118;29;20045;-71
2021/12/19 02:59:50;;;;;;;2.10;1.63;;;;;;;-2.27;86.15;96840.53;4844888;29;20048;-71
2021/12/19 03:02:16;;;;;;;2.58;1.88;;;;;;;-2.24;86.23;96842.91;4847597;29;20127;-69
2021/12/19 03:04:55;;;;;;;1.92;1.45;;;;;;;-2.19;86.22;96825.19;4864350;29;20060;-73
2021/12/19 03:07:21;;;;;;;4.10;2.60;;;;;;;-2.31;85.62;96818.19;4847650;29;20060;-70
2021/12/19 03:18:11;;;;;;;2.65;1.95;;;;;;;-2.06;86.00;96788.69;4806304;29;20073;-71
2021/12/19 03:20:38;;;;;;;2.72;1.58;;;;;;;-2.04;86.07;96790.28;4806568;29;20062;-71
2021/12/19 03:23:04;;;;;;;2.88;2.13;;;;;;;-2.16;85.79;96783.25;4806283;29;20174;-72
2021/12/19 03:25:30;;;;;;;1.77;1.35;;;;;;;-2.09;85.89;96781.91;4790827;29;20525;-72
2021/12/19 03:27:56;;;;;;;2.30;1.50;;;;;;;-2.02;86.22;96784.94;4806186;29;20187;-72
2021/12/19 03:30:21;;;;;;;2.47;1.88;;;;;;;-1.95;86.05;96779.22;4806113;29;20053;-72
2021/12/19 03:32:46;;;;;;;1.98;1.60;;;;;;;-1.85;85.80;96761.16;4790671;29;20390;-71
2021/12/19 03:35:11;;;;;;;3.08;2.40;;;;;;;-1.92;85.83;96765.94;4790830;29;20433;-68
2021/12/19 03:37:36;;;;;;;3.25;1.85;;;;;;;-1.92;85.61;96752.06;4806718;29;20077;-68
2021/12/19 03:40:10;;;;;;;1.95;1.70;;;;;;;-2.02;85.49;96754.44;4791231;29;20151;-68
2021/12/19 03:42:47;;;;;;;2.17;1.95;;;;;;;-2.04;85.22;96753.72;4806774;29;20049;-73
2021/12/19 03:45:16;;;;;;;2.15;1.48;;;;;;;-1.93;85.78;96737.34;4806227;29;20421;-64
2021/12/19 03:47:41;;;;;;;2.92;1.73;;;;;;;-1.98;85.81;96734.19;4806267;29;20417;-67
2021/12/19 03:50:09;;;;;;;2.90;2.15;;;;;;;-1.99;85.58;96711.63;4806308;29;20045;-65
2021/12/19 03:52:34;;;;;;;3.65;2.08;;;;;;;-1.96;85.70;96714.88;4843330;29;20057;-66
2021/12/19 03:54:59;;;;;;;3.42;1.65;;;;;;;-2.01;85.95;96701.31;4863757;29;20135;-66
2021/12/19 03:57:24;;;;;;;1.17;1.08;;;;;;;-2.03;85.49;96700.56;4863020;29;20151;-69
2021/12/19 03:59:49;;;;;;;4.35;1.77;;;;;;;-2.04;85.53;96704.13;4864176;29;20507;-68
2021/12/19 04:02:23;;;;;;;3.45;2.00;;;;;;;-2.01;85.77;96696.09;4863560;29;20048;-67
2021/12/19 04:04:47;;;;;;;2.30;1.63;;;;;;;-2.10;85.53;96685.44;4863703;29;20051;-72
2021/12/19 04:07:12;;;;;;;2.97;1.80;;;;;;;-1.99;85.31;96683.75;4863650;29;20045;-68
2021/12/19 04:09:37;;;;;;;2.67;1.67;;;;;;;-1.98;85.78;96671.56;4846481;29;20044;-67
2021/12/19 04:12:01;;;;;;;1.98;1.60;;;;;;;-1.89;85.88;96673.53;4862710;29;20060;-72
2021/12/19 04:14:26;;;;;;;1.92;1.73;;;;;;;-1.93;85.07;96661.63;4863263;29;20044;-68
2021/12/19 04:16:51;;;;;;;2.97;2.25;;;;;;;-2.02;85.70;96651.81;4863399;29;20144;-68
2021/12/19 04:19:16;;;;;;;7.10;3.08;;;;;;;-2.11;85.79;96647.22;4863421;29;20048;-69
2021/12/19 04:21:41;;;;;;;4.88;2.40;;;;;;;-2.06;86.14;96642.53;4863346;29;20522;-68
2021/12/19 04:24:06;;;;;;;2.10;1.60;;;;;;;-2.24;86.49;96629.78;4870352;29;20598;-68
2021/12/19 14:37:40;;;;;;;7.03;2.50;;;;;;;-0.01;84.96;96111.59;5046635;23;19981;-72
2021/12/19 14:40:17;;;;;;;6.15;2.72;;;;;;;0.05;85.10;96113.69;4861259;29;20117;-72
2021/12/19 14:42:50;;;;;;;3.80;1.95;;;;;;;0.07;85.16;96105.69;4844671;29;20052;-74
2021/12/19 14:45:20;;;;;;;4.38;2.60;;;;;;;0.10;85.04;96106.28;4861505;29;20044;-73
2021/12/19 14:48:05;;;;;;;3.53;2.65;;;;;;;0.12;84.52;96116.59;4861458;29;20052;-74
2021/12/19 14:50:37;;;;;;;;;;;;;;;0.11;84.36;96113.16;4844700;29;20057;-71
2021/12/19 14:53:11;;;;;;;2.88;2.10;;;;;;;0.08;84.43;96105.56;4844357;29;19919;-73
2021/12/19 14:56:05;;;;;;;3.00;2.00;;;;;;;0.05;84.47;96094.50;4862673;29;20442;-71
2021/12/19 14:58:37;;;;;;;10.00;2.95;;;;;;;0.08;84.73;96102.13;4847949;29;20040;-73
2021/12/19 15:01:18;;;;;;;3.20;2.40;;;;;;;0.12;84.80;96099.09;4865036;29;20052;-72
2021/12/19 15:04:08;;;;;;;3.88;2.70;;;;;;;0.18;85.27;96095.13;4848006;29;20109;-69
2021/12/19 15:06:39;;;;;;;4.47;2.33;;;;;;;0.13;85.07;96098.13;4863561;29;20131;-68
2021/12/19 15:09:15;;;;;;;5.47;2.50;;;;;;;0.07;84.67;96103.91;4864076;29;20044;-69
2021/12/19 15:12:06;;;;;;;3.40;3.08;;;;;;;0.18;84.75;96092.50;4851033;29;20083;-67
2021/12/19 15:14:31;;;;;;;3.90;2.65;;;;;;;0.20;84.86;96095.81;4864529;29;20044;-69
2021/12/19 15:16:56;;;;;;;3.85;2.75;;;;;;;0.16;84.63;96095.25;4840683;29;20100;-68
2021/12/19 15:19:21;;;;;;;4.65;2.70;;;;;;;0.18;84.50;96092.50;4822423;29;20045;-71
2021/12/19 15:21:45;;;;;;;5.22;3.47;;;;;;;0.15;84.06;96090.97;4836374;29;20048;-70
2021/12/19 15:24:12;;;;;;;2.78;2.30;;;;;;;0.18;84.30;96095.13;4854789;29;20057;-71
2021/12/19 15:26:36;;;;;;;2.78;2.42;;;;;;;0.18;84.29;96093.34;4854658;29;20140;-70
2021/12/19 15:29:06;;;;;;;3.92;2.30;;;;;;;0.21;84.29;96094.88;4854139;29;20139;-70
2021/12/19 15:31:35;;;;;;;5.32;2.30;;;;;;;0.09;83.91;96088.06;4837647;29;20495;-68
2021/12/19 15:34:01;;;;;;;3.05;1.98;;;;;;;0.09;83.88;96091.50;4837169;29;20048;-68
2021/12/19 15:36:26;;;;;;;3.15;1.83;;;;;;;0.08;83.61;96089.03;4835116;29;20055;-70
2021/12/19 15:38:50;;;;;;;3.30;2.10;;;;;;;0.10;83.65;96089.72;4845562;29;20048;-70
2021/12/19 15:41:17;;;;;;;2.75;1.65;;;;;;;0.12;83.65;96085.16;4844749;29;20093;-70
2021/12/19 15:43:42;;;;;;;2.75;1.60;;;;;;;0.07;83.77;96088.19;4828131;29;20132;-70
2021/12/19 15:46:07;;;;;;;2.40;1.60;;;;;;;0.12;83.54;96090.41;4845409;29;20495;-70
2021/12/19 15:48:31;;;;;;;2.38;1.60;;;;;;;0.17;83.61;96082.97;4845051;29;20565;-69
2021/12/19 15:50:56;;;;;;;1.60;1.50;;;;;;;0.19;83.65;96081.91;4845317;29;20047;-68
2021/12/19 15:53:21;;;;;;;3.28;2.38;;;;;;;0.16;83.46;96081.31;4845017;29;20817;-70
2021/12/19 15:55:46;;;;;;;1.73;1.50;;;;;;;0.21;83.43;96087.84;4844253;29;20053;-72
2021/12/19 15:58:11;;;;;;;2.25;1.50;;;;;;;0.21;83.31;96081.78;4843792;29;20129;-72
2021/12/19 16:00:36;;;;;;;4.57;2.72;;;;;;;0.19;83.32;96091.53;4843833;29;20420;-72
2021/12/19 16:03:01;;;;;;;7.22;2.35;;;;;;;0.20;83.47;96103.69;4845680;29;20045;-76
2021/12/19 16:05:26;;;;;;;3.38;2.22;;;;;;;0.20;83.36;96080.94;4844791;29;20072;-72
2021/12/19 16:07:51;;;;;;;5.18;2.40;;;;;;;0.24;83.54;96084.09;4844660;29;20341;-73
2021/12/19 16:10:42;;;;;;;4.10;2.05;;;;;;;0.20;83.18;96093.19;4845501;29;20397;-72
2021/12/19 16:13:07;;;;;;;3.10;2.22;;;;;;;0.14;83.17;96089.31;4845921;29;20073;-73
2021/12/19 16:15:32;;;;;;;2.97;2.63;;;;;;;0.09;83.17;96104.59;4845274;29;20048;-72
2021/12/19 16:17:57;;;;;;;4.07;2.78;;;;;;;0.05;83.49;96097.97;4829402;29;20053;-73
2021/12/19 16:20:24;;;;;;;4.45;2.70;;;;;;;0.06;83.75;96102.25;4845603;29;20079;-73
2021/12/19 16:22:49;;;;;;;6.43;2.53;;;;;;;0.09;83.71;96090.69;4846498;29;20117;-71
2021/12/19 16:25:15;;;;;;;6.00;2.65;;;;;;;0.05;83.80;96103.19;4828835;29;20120;-72
2021/12/19 16:27:40;;;;;;;2.47;1.92;;;;;;;0.09;83.89;96102.00;4843960;29;20048;-71
2021/12/19 16:30:10;;;;;;;4.03;2.80;;;;;;;0.10;84.11;96095.78;4843581;29;20044;-72
2021/12/19 16:32:35;;;;;;;4.25;2.75;;;;;;;-0.05;84.11;96097.09;4828028;29;20072;-71
2021/12/19 16:35:01;;;;;;;3.38;2.35;;;;;;;-0.02;84.21;96102.09;4844536;29;20523;-71
2021/12/19 16:37:26;;;;;;;3.70;2.25;;;;;;;-0.01;84.45;96104.56;4857252;29;20057;-71
2021/12/19 16:39:53;;;;;;;7.22;2.47;;;;;;;-0.09;83.75;96103.53;4863240;29;20047;-70
2021/12/19 16:44:47;;;;;;;2.30;1.52;;;;;;;-0.20;83.56;96111.47;4845877;29;20480;-72
2021/12/19 16:47:13;;;;;;;2.45;1.70;;;;;;;-0.16;83.73;96112.88;4862368;29;20068;-71
2021/12/19 16:49:40;;;;;;;4.25;2.03;;;;;;;-0.26;83.77;96106.78;4846029;29;20156;-70
2021/12/19 16:52:05;;;;;;;5.45;2.05;;;;;;;-0.31;84.00;96099.31;4863162;29;20131;-71
2021/12/19 16:54:30;;;;;;;3.00;2.08;;;;;;;-0.34;83.93;96114.47;4862702;29;20044;-71
2021/12/19 16:56:55;;;;;;;3.63;2.33;;;;;;;-0.52;83.45;96117.63;4863514;29;20064;-72
2021/12/19 16:59:21;;;;;;;2.45;2.13;;;;;;;-0.54;83.35;96119.53;4871172;29;20048;-72
2021/12/19 17:01:47;;;;;;;3.28;2.20;;;;;;;-0.39;83.71;96115.66;4852825;29;20068;-71
2021/12/19 17:04:14;;;;;;;2.70;1.75;;;;;;;-0.40;83.74;96129.69;4847239;29;20076;-71
2021/12/19 17:06:39;;;;;;;4.55;2.10;;;;;;;-0.36;83.36;96130.28;4856878;29;20055;-73
2021/12/19 17:09:06;;;;;;;2.92;1.85;;;;;;;-0.41;83.02;96130.66;4837274;29;20040;-72
2021/12/19 17:11:35;;;;;;;2.65;2.28;;;;;;;-0.41;82.99;96124.59;4852076;29;20052;-72
2021/12/19 17:14:09;;;;;;;4.53;2.67;;;;;;;-0.44;82.71;96124.84;4857481;29;20503;-71
2021/12/19 17:16:38;;;;;;;2.30;2.10;;;;;;;-0.45;82.39;96134.47;4862859;29;20191;-72
2021/12/19 17:19:04;;;;;;;2.15;1.95;;;;;;;-0.56;81.86;96138.94;4846078;29;20055;-71
2021/12/19 17:21:28;;;;;;;2.80;1.88;;;;;;;-0.55;81.94;96135.38;4830668;29;20045;-71
2021/12/19 17:23:53;;;;;;;4.00;2.65;;;;;;;-0.65;81.03;96137.09;4845779;29;20051;-72
2021/12/19 17:26:19;;;;;;;3.60;1.90;;;;;;;-0.54;81.77;96140.47;4846445;29;20131;-72
2021/12/19 17:28:45;;;;;;;5.38;1.48;;;;;;;-0.58;81.94;96144.31;4846163;29;20032;-72
2021/12/19 17:31:10;;;;;;;1.77;1.45;;;;;;;-0.57;81.73;96143.38;4862706;29;20064;-72
2021/12/19 17:33:35;;;;;;;2.28;1.95;;;;;;;-0.68;80.86;96145.22;4830634;29;20045;-73
2021/12/19 17:36:00;;;;;;;2.15;1.30;;;;;;;-0.68;80.02;96155.66;4862069;29;20468;-71
2021/12/19 17:38:27;;;;;;;3.83;1.75;;;;;;;-0.80;79.31;96162.72;4846987;29;20048;-74
2021/12/19 17:41:00;;;;;;;1.67;1.48;;;;;;;-0.79;79.38;96159.16;4846968;29;20048;-73
2021/12/19 17:43:27;;;;;;;2.30;1.80;;;;;;;-0.93;77.45;96162.06;4830796;29;20051;-74
2021/12/19 17:45:54;;;;;;;3.03;1.92;;;;;;;-0.92;78.22;96171.56;4845445;29;20059;-73
2021/12/19 17:48:20;;;;;;;2.28;1.67;;;;;;;-1.02;77.78;96170.66;4845413;29;20049;-71
2021/12/19 17:50:46;;;;;;;3.45;2.15;;;;;;;-1.12;77.33;96167.94;4845056;29;20056;-73
2021/12/19 17:53:13;;;;;;;4.78;2.03;;;;;;;-1.36;75.81;96168.13;4829569;29;20092;-74
2021/12/19 17:55:37;;;;;;;1.83;1.67;;;;;;;-1.28;77.21;96181.41;4846604;29;20139;-72
2021/12/19 17:58:03;;;;;;;3.10;2.05;;;;;;;-1.25;77.86;96178.56;4846955;29;20563;-73
2021/12/19 18:00:28;;;;;;;2.08;1.88;;;;;;;-1.20;77.95;96186.84;4846052;29;20049;-72
2021/12/19 18:02:54;;;;;;;1.25;1.15;;;;;;;-1.17;78.30;96189.22;4815188;29;20052;-73
2021/12/19 18:05:22;;;;;;;2.17;1.95;;;;;;;-1.17;78.19;96184.00;4846212;29;20052;-71
2021/12/19 18:07:46;;;;;;;1.83;1.48;;;;;;;-1.26;77.46;96187.34;4830148;29;20041;-73
2021/12/19 18:10:14;;;;;;;1.58;1.45;;;;;;;-1.35;75.96;96195.88;4845429;29;20040;-73
2021/12/19 18:12:40;;;;;;;1.65;1.35;;;;;;;-1.33;76.20;96196.59;4830078;29;20135;-74
2021/12/19 18:15:07;;;;;;;2.25;1.17;;;;;;;-1.24;77.09;96185.41;4845621;29;20062;-73
2021/12/19 18:17:33;;;;;;;2.13;1.42;;;;;;;-1.24;76.88;96201.09;4829976;29;20076;-69
2021/12/19 18:19:58;;;;;;;3.20;2.33;;;;;;;-1.33;76.56;96204.44;4844756;29;20048;-74
2021/12/19 18:22:23;;;;;;;2.70;2.03;;;;;;;-1.41;76.14;96198.16;4815139;29;20047;-75
2021/12/19 18:24:47;;;;;;;2.67;2.30;;;;;;;-1.49;75.71;96204.84;4862054;29;20048;-75
2021/12/19 18:27:12;;;;;;;3.53;2.28;;;;;;;-1.37;77.18;96223.94;4861820;29;20120;-74
2021/12/19 18:29:39;;;;;;;2.50;1.95;;;;;;;-1.32;77.24;96211.31;4861346;29;20048;-73
2021/12/19 18:32:09;;;;;;;6.00;2.65;;;;;;;-1.24;77.62;96216.78;4860858;29;20098;-74
2021/12/19 18:34:38;;;;;;;3.42;2.47;;;;;;;-1.27;77.23;96214.41;4828789;29;20483;-74
2021/12/19 18:37:10;;;;;;;4.68;2.60;;;;;;;-1.22;77.51;96214.03;4828242;29;20108;-73
2021/12/19 18:39:42;;;;;;;5.00;2.65;;;;;;;-1.26;77.17;96212.63;4861259;29;20056;-74
2021/12/19 18:42:15;;;;;;;3.35;2.20;;;;;;;-1.23;76.91;96221.03;4843986;29;20472;-74
2021/12/19 18:44:47;;;;;;;7.32;3.60;;;;;;;-1.37;76.48;96221.31;4861436;29;20192;-75
2021/12/19 18:49:52;;;;;;;2.40;1.98;;;;;;;-1.61;75.86;96224.06;4862352;29;20052;-74
2021/12/19 18:57:41;;;;;;;4.05;2.78;;;;;;;-1.47;76.79;96249.13;4819299;29;20069;-76
2021/12/19 19:00:06;;;;;;;3.20;2.42;;;;;;;-1.48;76.66;96243.06;4850118;29;20045;-75
2021/12/19 19:02:37;;;;;;;7.88;3.00;;;;;;;-1.52;76.55;96243.41;4850506;29;20044;-74
2021/12/19 19:05:09;;;;;;;3.53;2.60;;;;;;;-1.49;76.53;96245.78;4849541;29;20136;-75
2021/12/19 19:07:36;;;;;;;3.10;2.28;;;;;;;-1.48;76.81;96250.06;4831264;29;20048;-77
2021/12/19 19:10:08;;;;;;;2.88;2.53;;;;;;;-1.52;76.43;96257.31;4842864;29;20099;-74
2021/12/19 19:12:41;;;;;;;4.63;2.70;;;;;;;-1.51;76.71;96258.13;4811191;29;20104;-74
2021/12/19 19:15:07;;;;;;;3.78;2.30;;;;;;;-1.66;75.50;96262.75;4842137;29;20044;-74
2021/12/19 19:17:32;;;;;;;5.32;3.70;;;;;;;-1.80;74.10;96270.78;4841608;29;20056;-73
2021/12/19 19:19:57;;;;;;;3.95;2.70;;;;;;;-1.73;74.75;96266.78;4843547;29;20052;-75
2021/12/19 19:22:22;;;;;;;3.38;2.40;;;;;;;-1.66;75.69;96273.19;4825376;29;20047;-73
2021/12/19 19:24:47;;;;;;;4.30;3.15;;;;;;;-1.74;74.76;96269.50;4842203;29;20083;-74
2021/12/19 19:27:12;;;;;;;5.47;3.50;;;;;;;-1.77;74.33;96267.13;4825773;29;20037;-72
2021/12/19 19:29:38;;;;;;;4.78;3.40;;;;;;;-1.76;74.05;96266.19;4825330;29;20053;-74
2021/12/19 19:32:04;;;;;;;5.40;3.75;;;;;;;-1.84;74.30;96278.03;4825885;29;20045;-74
2021/12/19 19:34:29;;;;;;;5.93;3.50;;;;;;;-1.81;74.96;96268.31;4842518;29;20067;-76
2021/12/19 19:36:58;;;;;;;3.25;2.50;;;;;;;-1.79;74.80;96271.63;4833603;29;20053;-74
2021/12/19 19:44:43;;;;;;;3.05;2.63;;;;;;;-1.89;73.97;96281.94;4850100;29;20387;-76
2021/12/19 19:49:54;;;;;;;3.60;2.38;;;;;;;-1.84;73.84;96298.94;4847929;29;20088;-75
2021/12/19 19:52:19;;;;;;;2.38;2.17;;;;;;;-1.79;74.68;96293.34;4845938;29;20053;-74
2021/12/19 19:54:45;;;;;;;4.60;2.60;;;;;;;-1.78;74.47;96296.78;4844070;29;20097;-74
2021/12/19 19:57:10;;;;;;;3.80;2.60;;;;;;;-1.88;73.10;96296.66;4845325;29;20080;-74
2021/12/19 19:59:36;;;;;;;7.95;2.92;;;;;;;-2.01;72.50;96299.34;4846915;29;20108;-74
2021/12/19 20:02:03;;;;;;;4.32;2.78;;;;;;;-2.09;71.66;96298.25;4847726;29;20053;-74
2021/12/19 20:04:31;;;;;;;3.42;2.50;;;;;;;-2.02;72.72;96295.06;4845477;29;20053;-74
2021/12/19 20:06:57;;;;;;;5.65;3.38;;;;;;;-2.09;72.25;96306.91;4845107;29;20076;-73
2021/12/19 20:09:23;;;;;;;5.78;2.47;;;;;;;-2.09;71.89;96308.69;4845402;29;20048;-73
2021/12/19 20:11:49;;;;;;;7.10;3.28;;;;;;;-2.03;73.25;96314.28;4845435;29;20353;-75
2021/12/19 20:14:22;;;;;;;3.65;2.00;;;;;;;-2.04;72.20;96322.25;4844804;29;20423;-73
2021/12/19 20:16:46;;;;;;;3.05;1.83;;;;;;;-2.00;73.28;96324.50;4843618;29;20052;-73
2021/12/19 20:19:11;;;;;;;4.22;2.70;;;;;;;-2.17;71.95;96322.31;4845359;29;20052;-73
2021/12/19 20:21:36;;;;;;;5.35;3.10;;;;;;;-2.23;70.84;96322.75;4845053;29;20111;-75
2021/12/19 20:24:04;;;;;;;2.95;2.30;;;;;;;-2.32;71.24;96332.09;4844449;29;20053;-75
2021/12/19 20:26:29;;;;;;;7.65;3.15;;;;;;;-2.25;71.35;96320.25;4844841;29;20045;-74
2021/12/19 20:28:54;;;;;;;3.05;2.42;;;;;;;-2.17;72.65;96329.31;4844230;29;20052;-74
2021/12/19 20:31:19;;;;;;;4.05;2.72;;;;;;;-2.20;71.94;96330.38;4843093;29;20045;-74
2021/12/19 20:33:44;;;;;;;4.70;3.05;;;;;;;-2.26;71.30;96341.28;4844430;29;20053;-71
2021/12/19 20:36:11;;;;;;;5.55;2.53;;;;;;;-2.23;70.79;96333.19;4847744;29;20056;-73
2021/12/19 20:38:37;;;;;;;3.50;2.67;;;;;;;-2.33;70.32;96333.03;4829958;29;20129;-74
2021/12/19 20:41:03;;;;;;;3.85;2.60;;;;;;;-2.24;71.71;96341.97;4863258;29;20411;-72
2021/12/19 20:43:30;;;;;;;6.63;2.50;;;;;;;-2.31;71.15;96343.38;4846302;29;20105;-74
2021/12/19 20:45:55;;;;;;;3.85;2.22;;;;;;;-2.27;71.56;96347.44;4862991;29;20123;-73
2021/12/19 20:48:20;;;;;;;3.00;2.25;;;;;;;-2.28;71.66;96345.75;4845416;29;20080;-74
2021/12/19 20:50:45;;;;;;;3.92;1.73;;;;;;;-2.25;72.20;96341.13;4862845;29;20075;-74
2021/12/19 20:53:11;;;;;;;4.18;2.42;;;;;;;-2.34;71.68;96349.63;4833932;29;20053;-74
2021/12/19 20:55:36;;;;;;;2.22;2.03;;;;;;;-2.31;72.28;96354.63;4848037;29;20114;-74
2021/12/19 20:58:01;;;;;;;4.55;2.97;;;;;;;-2.44;71.14;96355.63;4834566;29;20041;-73
2021/12/19 21:00:28;;;;;;;4.50;2.85;;;;;;;-2.72;70.34;96355.00;4826809;29;20055;-71
2021/12/19 21:02:53;;;;;;;4.47;2.45;;;;;;;-2.70;71.27;96370.50;4826316;29;20056;-71
2021/12/19 21:05:18;;;;;;;3.00;2.05;;;;;;;-2.61;71.10;96365.50;4842796;29;20053;-76
2021/12/19 21:07:43;;;;;;;3.25;2.25;;;;;;;-2.50;72.21;96374.34;4861978;29;20041;-69
2021/12/19 21:10:12;;;;;;;2.75;2.15;;;;;;;-2.51;71.72;96364.84;4862198;29;20571;-74
2021/12/19 21:20:29;;;;;;;6.80;3.75;;;;;;;-2.70;71.06;96379.16;4859926;29;20056;-73
2021/12/19 21:22:54;;;;;;;3.78;3.35;;;;;;;-2.69;71.40;96378.22;4835904;29;20041;-74
2021/12/19 21:25:19;;;;;;;4.80;3.08;;;;;;;-2.63;71.88;96382.19;4853620;29;20127;-73
2021/12/19 21:27:44;;;;;;;2.47;2.25;;;;;;;-2.78;70.79;96391.09;4821619;29;20408;-74
2021/12/19 21:30:10;;;;;;;3.42;2.30;;;;;;;-2.76;71.15;96386.59;4852229;29;20103;-71
2021/12/19 21:32:37;;;;;;;2.90;2.20;;;;;;;-2.71;71.99;96379.31;4852805;29;20516;-75
2021/12/19 21:35:34;;;;;;;3.47;2.03;;;;;;;-2.69;72.28;96395.66;4822966;29;20071;-72
2021/12/19 21:40:45;;;;;;;4.93;2.63;;;;;;;-2.95;72.07;96393.13;4836151;29;20067;-74
2021/12/19 21:43:35;;;;;;;7.07;3.28;;;;;;;-2.90;72.45;96400.59;4856751;29;20044;-73
2021/12/19 21:46:00;;;;;;;7.25;2.75;;;;;;;-2.94;72.32;96399.16;4861529;29;20474;-73
2021/12/19 21:48:24;;;;;;;1.98;1.77;;;;;;;-2.88;72.93;96403.09;4824568;29;20040;-72
2021/12/19 21:50:49;;;;;;;4.90;3.25;;;;;;;-2.95;72.91;96402.69;4852011;29;20128;-74
2021/12/19 21:53:14;;;;;;;3.70;2.60;;;;;;;-2.88;73.17;96411.75;4851193;29;20044;-72
2021/12/19 21:55:39;;;;;;;3.63;2.47;;;;;;;-2.95;73.52;96403.53;4851894;29;20071;-73
2021/12/19 21:58:04;;;;;;;5.75;3.22;;;;;;;-2.98;73.55;96408.94;4850774;29;20500;-73
2021/12/19 22:00:31;;;;;;;4.30;3.10;;;;;;;-2.97;73.76;96409.78;4835637;29;20482;-73
2021/12/19 22:02:55;;;;;;;6.28;2.85;;;;;;;-3.03;73.72;96405.81;4852839;29;20049;-72
2021/12/19 22:05:21;;;;;;;3.05;2.42;;;;;;;-3.02;74.38;96410.09;4833133;29;20053;-72
2021/12/19 22:07:47;;;;;;;4.38;2.90;;;;;;;-3.14;74.74;96431.78;4835540;29;20037;-73
2021/12/19 22:10:13;;;;;;;3.30;2.35;;;;;;;-3.13;74.93;96425.63;4837799;29;20052;-73
2021/12/19 22:12:48;;;;;;;5.32;3.38;;;;;;;-3.13;74.76;96424.78;4861379;29;20211;-72
2021/12/19 22:15:25;;;;;;;;;;;;;;;-3.04;75.05;96425.00;4837531;29;20052;-73
2021/12/19 22:17:51;;;;;;;3.28;2.13;;;;;;;-3.08;74.86;96427.94;4842235;29;19964;-72
2021/12/19 22:20:16;;;;;;;3.53;2.60;;;;;;;-3.11;75.52;96428.13;4843278;29;20163;-70
2021/12/19 22:22:41;;;;;;;3.88;2.65;;;;;;;-3.13;74.85;96435.22;4828233;29;20053;-73
2021/12/19 22:25:06;;;;;;;4.47;3.28;;;;;;;-3.23;75.61;96436.78;4830241;29;20056;-73
2021/12/19 22:27:31;;;;;;;4.28;3.13;;;;;;;-3.26;75.44;96437.81;4830601;29;20109;-73
2021/12/19 22:29:56;;;;;;;3.20;2.10;;;;;;;-3.25;75.20;96443.84;4857240;29;20041;-73
2021/12/19 22:32:20;;;;;;;3.72;2.70;;;;;;;-3.24;75.62;96450.72;4849346;29;20037;-73
2021/12/19 22:34:45;;;;;;;7.80;3.03;;;;;;;-3.24;75.74;96450.72;4833208;29;20410;-73
2021/12/19 22:37:12;;;;;;;3.88;2.78;;;;;;;-3.23;75.39;96452.41;4844306;29;20123;-73
2021/12/19 22:39:40;;;;;;;3.83;2.75;;;;;;;-3.26;75.60;96456.03;4818496;29;20049;-74
2021/12/19 22:42:05;;;;;;;3.33;2.17;;;;;;;-3.25;75.92;96462.94;4843315;29;20098;-71
2021/12/19 22:44:30;;;;;;;4.18;2.10;;;;;;;-3.24;75.46;96464.59;4835892;29;20099;-71